ミールヌイ の空港の天気 - METARとTAF

Mirny ( UERR / MJZ ) - ロシア ミールヌイ
飛行場実況気象(Metar)
観測時間05/26 09:30 YAKT (05/26 00:30 UTC)
風向・風速西南西 7m/s
視程10km以上
天気現象
なし
気温18℃
湿度49%
気圧1001hPa
METARUERR 260030Z 24007MPS CAVOK 18/07 Q1001 R25/CLRD60 NOSIG RMK QFE720
過去の天気等 Google飛行場航空写真 Wunderground天気予報

過去48時間のMETAR

飛行場予報(TAF)
発表時間: 5/26 08:00 YAKT (5/25 23:00 UTC)
予報対象時間: 26日9時 YAKT ~ 27日9時 YAKT
風向・風速西 5m/s 瞬間風速 10m/s
視程10km以上
全天の4割程度の積乱雲 雲底高度 910m
26日18時 YAKT ~ 26日24時 YAKT に一時的に
視程4000m
天気現象弱いしゅう雨
全天の4割程度の雲 雲底高度 210m
全天の8割程度の積乱雲 雲底高度 610m
全天を覆う雲 雲底高度 3050m
TAF UERR 252300Z 2600/2624 26005G10MPS 9999 SCT030CB
TEMPO 2609/2615 4000 -SHRA SCT007 BKN020CB OVC100